Aérodrome :
LOGIN :

S'inscrire | Disclaimer

   EN    FR    IT 

 










Légende :    VFR   VFR Marginal   IFR   IFR Intensif   IFR Très Intensif
Visi : 
Plafond : 
>= 8 km
>= 3000ft
5 à 8 km
1000 à 3000 ft
1500m à 5 km
500 à 1000 ft
800 à 1500m
200 à 500 ft
< 800m
< 200 ft
Symboles :   Orages  Brouillard  Fortes neiges  Fortes précipitations  Vent > 20 kt
SIGMETs :   Divers  Orages  Givrage  Turbulence  Onde Orograph.  Cendres Volcan.






- Altitude de l'aérodrome : 183 ft


LIBA - Amendola Foggia

DERNIER METAR :
  • 180055Z 26005KT CAVOK 15/15 Q1018 RMK SKC VIS MIN 9999 WIND THR11 26004KT WIND THR29 /////KT BLU

METARs EXPIRÉS :
  • 172355Z 31004KT CAVOK 15/15 Q1018 RMK SKC VIS MIN 9999 WIND THR11 31003KT WIND THR29 /////KT BLU
  • 172255Z 30004KT CAVOK 15/15 Q1018 RMK SKC VIS MIN 9999 WIND THR11 30003KT WIND THR29 /////KT BLU

TAF TAF LIBA
Valide du 18 à 00h jusqu'au 18 à 09h UTC


172300Z 1800/1809 VRB03KT CAVOK



MET'MAP, la Météo Aéronautique d'un coup d'oeil ! - Copyright ORBIFLY Décembre 2007 - Disclaimer

ORBIFLY MET'MAP TEAM :

Programmation & Développement : Alexandra Zaïnal
Conception & Développement : Baudouin d'Aumeries
Co-Programmation & Développement : Marc-Olivier Méhu
Soutien technique & logistique : Manuel Goepfert

Contact : metmap@orbifly.com




SOURCES & CREDITS :

   NOAA